Shemah Yisrael!
Hear, O Israel: the LORD our God, the LORD is one.
You shall love the LORD your God with all your heart and with all your soul and with all your might.
(Deuteronomy 6:4-5)
Houston / Ellington, TX, United States (KEFD) 29-36N 095-10W
Jan 17, 2018 - 02:50 AM EST / 2018.01.17 0750 UTC
Wind: from the N (350 degrees) at 14 MPH (12 KT) gusting to 21 MPH (18 KT):0
Visibility: 10 mile(s):0
Sky conditions: clear
Temperature: 24 F (-4 C)
Windchill: 12 F (-11 C):1
Dew Point: 15 F (-9 C)
Relative Humidity: 68%
Pressure (altimeter): 30.7 in. Hg (1039 hPa)
ob: KEFD 170750Z 35012G18KT 10SM CLR M04/M09 A3070
cycle: 8
w e b m a s t e r   a t   s h e m a h   d o t   n e t